Unser Flugplatzteam

Segelflugzeugschlepp am Flugplatz Konstanz

Unsere freundlichen Mitarbeiter stehen Ihnen gerne mit Rat und Tat zur Seite:

Minky Schweizer

Flugleiterin, Beauftragte für Luftaufsicht am Verkehrlandeplatz Konstanz

Jan Schumacher

Flugleiter, Beauftragter für Luftaufsicht am Verkehrlandeplatz Konstanz

Live am Platz

Die Bilder unserer Webcams werden alle 5 Minuten aktualisiert.

Sonnenaufgang:

06:50 UTC / 07:50 Lokal

Sonnenuntergang:

15:35 UTC / 16:35 Lokal

METAR (02.12.2021 15:20 UTC):

EDNY 021520Z 34006KT 2500 -RASN BKN008 01/00 Q1002
IFR

TAF (02.12.2021 11:00 UTC):

TAF EDNY 021100Z 0212/0312 26010KT 9999 FEW010 BKN020 PROB30 TEMPO 0212/0216 4000 SHRASN BKN012TCU BECMG 0217/0219 24005KT PROB30 TEMPO 0218/0304 3000 -SHSN BKN012TCU

Alle Angaben unverbindlich und ohne Gewähr. Zeiten genähert.

Für den Verkehrslandeplatz Konstanz werden keine offiziellen Wetterinformationen ausgegeben. Daher werden zur Orientierung Daten des nahegelegenen Flughafens Friedrichshafen dargestellt.

Das Landeentgelt kann bei uns auch mit aerops bezahlt werden. Die App für's Handy ist kostenfrei erhältlich.